createdAt,value
2019-01-21T00:01:58.074Z,21.70
2019-01-21T00:04:26.699Z,25.33
2019-01-21T00:06:55.579Z,25.97
2019-01-21T00:09:24.194Z,23.20
2019-01-21T00:11:52.786Z,23.70
2019-01-21T00:14:21.742Z,20.87
2019-01-21T00:16:50.343Z,24.13
2019-01-21T00:19:18.962Z,24.57
2019-01-21T00:21:47.560Z,24.23
2019-01-21T00:24:16.215Z,25.20
2019-01-21T00:26:45.152Z,26.00
2019-01-21T00:29:14.252Z,22.33
2019-01-21T00:31:43.165Z,20.90
2019-01-21T00:34:11.760Z,23.03
2019-01-21T00:36:40.701Z,22.97
2019-01-21T00:39:09.301Z,20.43
2019-01-21T00:41:37.887Z,21.93
2019-01-21T00:44:06.866Z,24.87
2019-01-21T00:46:35.750Z,19.57
2019-01-21T00:51:39.686Z,21.70
2019-01-21T00:54:08.295Z,20.87
2019-01-21T00:56:36.886Z,21.57
2019-01-21T00:59:05.521Z,21.40
2019-01-21T01:01:34.129Z,23.40
2019-01-21T01:04:03.085Z,20.93
2019-01-21T01:06:31.686Z,22.43
2019-01-21T01:09:00.651Z,24.07
2019-01-21T01:11:29.242Z,22.50
2019-01-21T01:13:58.225Z,24.97
2019-01-21T01:16:27.113Z,24.87
2019-01-21T01:18:55.719Z,25.80
2019-01-21T01:21:24.299Z,24.37
2019-01-21T01:23:52.938Z,25.60
2019-01-21T01:26:21.562Z,23.33
2019-01-21T01:28:50.542Z,24.37
2019-01-21T01:31:19.124Z,22.40
2019-01-21T01:33:47.721Z,22.53
2019-01-21T01:36:16.315Z,24.77
2019-01-21T01:38:44.919Z,22.90
2019-01-21T01:41:13.509Z,24.50
2019-01-21T01:43:42.128Z,23.43
2019-01-21T01:46:10.716Z,26.07
2019-01-21T01:48:39.341Z,20.63
2019-01-21T01:51:08.276Z,23.77
2019-01-21T01:53:37.013Z,23.63
2019-01-21T01:56:05.606Z,25.10
2019-01-21T01:58:34.538Z,21.53
2019-01-21T02:01:03.160Z,22.03
2019-01-21T02:03:31.763Z,22.67
2019-01-21T02:06:00.491Z,22.50
2019-01-21T02:08:29.112Z,23.13
2019-01-21T02:10:58.065Z,21.07
2019-01-21T02:13:26.674Z,23.83
2019-01-21T02:15:55.288Z,22.83
2019-01-21T02:18:23.935Z,25.83
2019-01-21T02:23:31.089Z,28.30
2019-01-21T02:26:00.028Z,25.27
2019-01-21T02:28:50.047Z,23.70
2019-01-21T02:31:40.055Z,22.87
2019-01-21T02:37:11.982Z,23.27
2019-01-21T02:42:28.554Z,23.67
2019-01-21T02:45:15.844Z,24.27
2019-01-21T02:47:44.818Z,21.43
2019-01-21T02:50:13.755Z,24.73
2019-01-21T02:53:01.315Z,20.77
2019-01-21T02:55:51.803Z,20.97
2019-01-21T02:58:23.836Z,24.10
2019-01-21T03:01:08.289Z,23.13
2019-01-21T03:09:15.661Z,22.80
2019-01-21T03:12:03.058Z,21.30
2019-01-21T03:14:53.529Z,22.53
2019-01-21T03:17:37.466Z,22.83
2019-01-21T03:22:56.299Z,23.30
2019-01-21T03:25:24.950Z,20.87
2019-01-21T03:28:12.027Z,20.63
2019-01-21T03:30:59.767Z,21.83
2019-01-21T03:33:59.148Z,22.77
2019-01-21T03:36:40.119Z,19.93
2019-01-21T03:44:45.296Z,22.37
2019-01-21T03:47:26.258Z,20.93
2019-01-21T03:50:07.181Z,21.17
2019-01-21T03:52:38.902Z,24.67
2019-01-21T03:55:07.573Z,21.27
2019-01-21T03:57:51.277Z,24.80
2019-01-21T04:00:23.079Z,26.70
2019-01-21T04:03:03.778Z,24.43
2019-01-21T04:05:35.449Z,24.83
2019-01-21T04:08:13.111Z,22.43
2019-01-21T04:11:13.419Z,23.57
2019-01-21T04:13:57.178Z,21.30
2019-01-21T04:16:59.479Z,23.30
2019-01-21T04:19:53.332Z,21.90
2019-01-21T04:25:12.890Z,22.00
2019-01-21T04:28:19.047Z,20.40
2019-01-21T04:30:56.759Z,22.60
2019-01-21T04:33:43.617Z,24.20
2019-01-21T04:36:17.977Z,25.60
2019-01-21T04:39:07.730Z,24.00
2019-01-21T04:41:55.473Z,22.33
2019-01-21T04:44:52.181Z,26.00
2019-01-21T04:53:30.357Z,26.57
2019-01-21T04:59:01.855Z,24.77
2019-01-21T05:04:50.003Z,26.90
2019-01-21T05:10:22.472Z,45.03
2019-01-21T05:12:57.100Z,40.00
2019-01-21T05:18:41.221Z,41.53
2019-01-21T05:21:10.254Z,36.47
2019-01-21T05:24:09.649Z,30.23
2019-01-21T05:26:56.398Z,33.50
2019-01-21T05:29:34.052Z,32.27
2019-01-21T05:35:03.171Z,28.77
2019-01-21T05:37:31.802Z,33.53
2019-01-21T05:45:48.153Z,36.87
2019-01-21T05:48:35.500Z,38.50
2019-01-21T05:51:29.370Z,35.10
2019-01-21T05:54:10.343Z,33.73
2019-01-21T05:56:45.032Z,35.00
2019-01-21T05:59:22.721Z,35.53
2019-01-21T06:01:54.280Z,40.53
2019-01-21T06:04:28.670Z,36.33
2019-01-21T06:09:44.838Z,37.13
2019-01-21T06:12:13.742Z,37.90
2019-01-21T06:17:45.683Z,50.00
2019-01-21T06:20:17.725Z,42.00
2019-01-21T06:22:49.634Z,36.23
2019-01-21T06:25:43.168Z,38.03
2019-01-21T06:31:24.234Z,43.00
2019-01-21T06:34:08.282Z,41.53
2019-01-21T06:39:30.781Z,45.73
2019-01-21T06:42:14.716Z,42.80
2019-01-21T06:47:33.666Z,45.10
2019-01-21T06:50:21.526Z,52.20
2019-01-21T06:52:59.633Z,45.23
2019-01-21T06:55:46.800Z,43.67
2019-01-21T06:58:36.917Z,46.13
2019-01-21T07:01:11.297Z,48.27
2019-01-21T07:06:39.708Z,48.17
2019-01-21T07:14:59.968Z,48.13
2019-01-21T07:17:31.581Z,47.43
2019-01-21T07:20:18.621Z,47.30
2019-01-21T07:25:43.865Z,52.20
2019-01-21T07:28:12.490Z,56.20
2019-01-21T07:31:06.353Z,55.53
2019-01-21T07:33:41.134Z,65.63
2019-01-21T07:36:15.635Z,49.43
2019-01-21T07:38:46.945Z,41.47
2019-01-21T07:44:33.825Z,39.63
2019-01-21T07:47:26.860Z,42.13
2019-01-21T07:53:10.122Z,42.93
2019-01-21T07:56:12.803Z,41.10
2019-01-21T07:59:12.762Z,42.10
2019-01-21T08:04:38.673Z,44.10
2019-01-21T08:07:07.646Z,43.60
2019-01-21T08:12:58.468Z,43.17
2019-01-21T08:15:45.665Z,42.43
2019-01-21T08:21:05.161Z,41.00
2019-01-21T08:23:33.802Z,44.50
2019-01-21T08:28:49.873Z,44.93
2019-01-21T08:34:15.693Z,42.63
2019-01-21T08:39:56.530Z,41.97
2019-01-21T08:42:44.002Z,48.40
2019-01-21T08:45:15.660Z,54.37
2019-01-21T08:48:05.720Z,44.77
2019-01-21T08:50:34.632Z,45.73
2019-01-21T08:53:18.361Z,45.00
2019-01-21T08:58:50.220Z,43.80
2019-01-21T09:01:28.000Z,39.83
2019-01-21T09:07:06.083Z,46.17
2019-01-21T09:09:35.049Z,39.53
2019-01-21T09:12:07.010Z,49.23
2019-01-21T09:14:54.729Z,48.60
2019-01-21T09:20:29.581Z,55.07
2019-01-21T09:25:42.623Z,55.13
2019-01-21T09:28:20.480Z,57.20
2019-01-21T09:31:07.852Z,54.03
2019-01-21T09:36:39.507Z,58.37
2019-01-21T09:45:07.818Z,59.03
2019-01-21T09:47:36.707Z,58.57
2019-01-21T09:50:05.328Z,60.43
2019-01-21T09:52:34.277Z,58.53
2019-01-21T09:55:03.166Z,61.87
2019-01-21T09:57:33.415Z,58.10
2019-01-21T10:00:00.670Z,60.80
2019-01-21T10:02:29.304Z,61.63
2019-01-21T10:04:57.931Z,60.00
2019-01-21T10:07:39.186Z,54.00
2019-01-21T10:13:14.281Z,60.97
2019-01-21T10:18:49.184Z,61.07
2019-01-21T10:21:36.589Z,65.63
2019-01-21T10:24:08.359Z,55.30
2019-01-21T10:27:01.247Z,61.67
2019-01-21T10:32:55.312Z,65.00
2019-01-21T10:35:39.561Z,63.73
2019-01-21T10:38:46.527Z,59.47
2019-01-21T10:41:18.392Z,65.37
2019-01-21T10:47:14.136Z,63.10
2019-01-21T10:49:46.087Z,64.33
2019-01-21T10:52:39.639Z,63.53
2019-01-21T10:55:30.751Z,65.20
2019-01-21T10:58:17.983Z,64.97
2019-01-21T11:01:05.545Z,68.93
2019-01-21T11:06:49.608Z,66.97
2019-01-21T11:12:17.716Z,62.60
2019-01-21T11:17:46.476Z,64.97
2019-01-21T11:20:17.823Z,63.10
2019-01-21T11:26:07.187Z,61.80
2019-01-21T11:28:47.838Z,70.53
2019-01-21T11:31:25.436Z,66.57
2019-01-21T11:37:22.311Z,64.20
2019-01-21T11:42:38.802Z,62.80
2019-01-21T11:45:19.419Z,54.30
2019-01-21T11:48:00.031Z,56.63
2019-01-21T11:50:53.411Z,62.37
2019-01-21T11:53:27.791Z,64.10
2019-01-21T11:58:59.642Z,52.87
2019-01-21T12:04:37.265Z,50.77
2019-01-21T12:10:34.125Z,55.70
2019-01-21T12:19:09.045Z,54.97
2019-01-21T12:24:44.234Z,54.00
2019-01-21T12:27:22.275Z,50.27
2019-01-21T12:30:09.758Z,45.37
2019-01-21T12:32:47.931Z,50.23
2019-01-21T12:35:25.929Z,46.50
2019-01-21T12:38:13.523Z,42.27
2019-01-21T12:40:45.162Z,42.97
2019-01-21T12:46:07.604Z,49.63
2019-01-21T12:48:39.313Z,41.90
2019-01-21T12:51:30.082Z,37.90
2019-01-21T12:54:02.079Z,47.00
2019-01-21T12:56:33.715Z,43.77
2019-01-21T12:59:05.059Z,47.93
2019-01-21T13:04:33.992Z,45.40
2019-01-21T13:16:11.225Z,47.50
2019-01-21T13:19:10.913Z,48.10
2019-01-21T13:21:57.977Z,47.47
2019-01-21T13:24:35.599Z,48.50
2019-01-21T13:27:06.997Z,51.37
2019-01-21T13:29:35.641Z,44.37
2019-01-21T13:32:07.201Z,47.50
2019-01-21T13:43:01.443Z,43.47
2019-01-21T13:46:09.163Z,37.07
2019-01-21T13:51:49.319Z,38.50
2019-01-21T13:57:17.626Z,35.20
2019-01-21T14:02:40.069Z,35.67
2019-01-21T14:05:21.042Z,32.67
2019-01-21T14:08:01.960Z,34.47
2019-01-21T14:10:36.637Z,28.70
2019-01-21T14:13:17.375Z,47.70
2019-01-21T14:18:36.719Z,42.40
2019-01-21T14:21:30.454Z,43.87
2019-01-21T14:24:02.001Z,45.57
2019-01-21T14:26:39.904Z,44.83
2019-01-21T14:29:08.888Z,42.93
2019-01-21T14:31:43.380Z,47.67
2019-01-21T14:34:15.069Z,46.30
2019-01-21T14:42:34.139Z,44.70
2019-01-21T14:45:24.000Z,42.20
2019-01-21T14:47:58.365Z,42.13
2019-01-21T14:51:05.244Z,46.63
2019-01-21T14:53:55.110Z,40.73
2019-01-21T15:04:56.121Z,40.27
2019-01-21T15:07:27.540Z,45.60
2019-01-21T15:15:37.878Z,59.77
2019-01-21T15:18:25.226Z,57.53
2019-01-21T15:21:08.833Z,61.50
2019-01-21T15:23:49.877Z,65.33
2019-01-21T15:26:24.625Z,63.93
2019-01-21T15:31:37.405Z,67.77
2019-01-21T15:34:11.672Z,67.73
2019-01-21T15:36:47.379Z,91.17
2019-01-21T15:39:15.323Z,76.30
2019-01-21T15:41:53.647Z,70.70
2019-01-21T15:47:06.760Z,60.17
2019-01-21T15:49:35.363Z,62.17
2019-01-21T15:52:13.067Z,59.63
2019-01-21T15:54:47.900Z,61.57
2019-01-21T16:00:21.848Z,52.77
2019-01-21T16:03:08.703Z,53.17
2019-01-21T16:05:46.381Z,57.50
2019-01-21T16:08:15.335Z,60.73
2019-01-21T16:10:49.919Z,56.80
2019-01-21T16:16:03.387Z,54.97
2019-01-21T16:21:35.375Z,53.80
2019-01-21T16:24:13.120Z,52.67
2019-01-21T16:26:42.050Z,49.00
2019-01-21T16:29:17.232Z,46.40
2019-01-21T16:31:45.845Z,46.63
2019-01-21T16:34:17.408Z,48.60
2019-01-21T16:37:11.598Z,48.27
2019-01-21T16:39:52.571Z,48.53
2019-01-21T16:42:21.104Z,51.40
2019-01-21T16:44:50.045Z,49.47
2019-01-21T16:47:18.654Z,50.80
2019-01-21T16:49:47.615Z,55.77
2019-01-21T16:52:16.528Z,50.30
2019-01-21T16:54:45.129Z,88.07
2019-01-21T16:57:13.743Z,55.83
2019-01-21T16:59:42.654Z,55.33
2019-01-21T17:02:11.286Z,50.37
2019-01-21T17:04:39.878Z,46.93
2019-01-21T17:07:08.513Z,45.07
2019-01-21T17:09:37.113Z,44.23
2019-01-21T17:12:05.751Z,48.07
2019-01-21T17:14:34.360Z,47.27
2019-01-21T17:17:03.227Z,43.77
2019-01-21T17:19:31.838Z,44.67
2019-01-21T17:22:00.808Z,44.53
2019-01-21T17:24:29.401Z,43.73
2019-01-21T17:26:58.019Z,46.00
2019-01-21T17:29:26.605Z,46.53
2019-01-21T17:31:55.538Z,44.53
2019-01-21T17:34:24.154Z,41.23
2019-01-21T17:36:52.788Z,41.30
2019-01-21T17:39:21.695Z,41.23
2019-01-21T17:41:50.366Z,43.33
2019-01-21T17:44:18.969Z,45.27
2019-01-21T17:46:47.581Z,45.67
2019-01-21T17:49:16.452Z,42.90
2019-01-21T17:51:45.058Z,40.40
2019-01-21T17:54:13.663Z,38.70
2019-01-21T17:56:42.572Z,39.73
2019-01-21T17:59:11.181Z,48.50
2019-01-21T18:01:40.158Z,41.53
2019-01-21T18:04:08.786Z,38.90
2019-01-21T18:06:37.728Z,44.13
2019-01-21T18:09:06.721Z,44.73
2019-01-21T18:11:41.023Z,50.20
2019-01-21T18:14:03.936Z,43.90
2019-01-21T18:16:32.551Z,55.67
2019-01-21T18:19:01.152Z,52.37
2019-01-21T18:21:29.768Z,48.43
2019-01-21T18:23:58.719Z,45.97
2019-01-21T18:26:27.702Z,47.67
2019-01-21T18:28:56.303Z,49.67
2019-01-21T18:31:25.200Z,43.37
2019-01-21T18:33:54.064Z,43.87
2019-01-21T18:36:22.967Z,40.23
2019-01-21T18:38:51.563Z,45.97
2019-01-21T18:43:59.004Z,46.80
2019-01-21T18:46:27.932Z,43.10
2019-01-21T18:48:56.843Z,46.40
2019-01-21T18:51:25.452Z,48.47
2019-01-21T18:53:54.381Z,44.93
2019-01-21T18:56:23.001Z,45.30
2019-01-21T18:58:51.603Z,48.83
2019-01-21T19:01:20.503Z,45.60
2019-01-21T19:03:49.101Z,43.73
2019-01-21T19:06:18.119Z,38.23
2019-01-21T19:08:46.710Z,39.23
2019-01-21T19:11:15.334Z,36.50
2019-01-21T19:13:44.279Z,37.57
2019-01-21T19:16:12.898Z,39.73
2019-01-21T19:18:41.840Z,38.07
2019-01-21T19:21:10.450Z,41.70
2019-01-21T19:23:39.038Z,43.43
2019-01-21T19:26:07.655Z,38.20
2019-01-21T19:28:36.254Z,39.83
2019-01-21T19:31:04.882Z,35.73
2019-01-21T19:33:33.497Z,40.50
2019-01-21T19:36:02.092Z,44.07
2019-01-21T19:38:30.698Z,33.63
2019-01-21T19:40:59.364Z,37.53
2019-01-21T19:43:27.991Z,38.00
2019-01-21T19:45:56.608Z,42.70
2019-01-21T19:48:25.233Z,45.57
2019-01-21T19:50:54.103Z,42.73
2019-01-21T19:53:22.712Z,41.70
2019-01-21T19:55:51.299Z,47.17
2019-01-21T19:58:20.008Z,42.77
2019-01-21T20:00:48.571Z,43.63
2019-01-21T20:03:17.573Z,40.57
2019-01-21T20:05:46.698Z,39.67
2019-01-21T20:08:15.442Z,44.10
2019-01-21T20:10:44.411Z,41.23
2019-01-21T20:13:13.076Z,37.37
2019-01-21T20:15:41.673Z,41.10
2019-01-21T20:18:10.312Z,42.70
2019-01-21T20:20:38.987Z,45.47
2019-01-21T20:23:07.927Z,44.83
2019-01-21T20:25:36.908Z,42.50
2019-01-21T20:28:05.530Z,49.37
2019-01-21T20:30:34.146Z,49.27
2019-01-21T20:33:03.036Z,45.60
2019-01-21T20:35:31.618Z,44.00
2019-01-21T20:38:00.649Z,43.00
2019-01-21T20:40:29.632Z,39.70
2019-01-21T20:42:58.248Z,39.57
2019-01-21T20:45:27.110Z,46.00
2019-01-21T20:47:55.722Z,39.13
2019-01-21T20:50:25.041Z,38.80
2019-01-21T20:52:54.137Z,42.67
2019-01-21T20:55:22.714Z,52.13
2019-01-21T20:57:51.648Z,46.40
2019-01-21T21:02:59.154Z,44.20
2019-01-21T21:05:28.263Z,41.60
2019-01-21T21:07:57.249Z,43.63
2019-01-21T21:10:26.076Z,42.70
2019-01-21T21:12:54.672Z,38.77
2019-01-21T21:15:26.465Z,40.70
2019-01-21T21:17:55.465Z,42.00
2019-01-21T21:20:24.335Z,39.10
2019-01-21T21:22:52.968Z,43.10
2019-01-21T21:25:21.596Z,42.80
2019-01-21T21:27:50.227Z,44.13
2019-01-21T21:33:03.331Z,44.23
2019-01-21T21:35:32.242Z,53.73
2019-01-21T21:38:00.863Z,51.20
2019-01-21T21:40:29.458Z,43.53
2019-01-21T21:42:58.057Z,42.33
2019-01-21T21:45:27.914Z,45.40
2019-01-21T21:47:55.261Z,45.57
2019-01-21T21:50:27.379Z,38.00
2019-01-21T21:52:56.275Z,40.63
2019-01-21T21:55:24.971Z,39.40
2019-01-21T21:57:53.579Z,44.73
2019-01-21T22:00:22.193Z,42.70
2019-01-21T22:02:50.824Z,38.33
2019-01-21T22:05:19.797Z,44.53
2019-01-21T22:07:48.410Z,43.00
2019-01-21T22:10:20.506Z,43.27
2019-01-21T22:12:48.676Z,39.07
2019-01-21T22:15:17.326Z,36.90
2019-01-21T22:17:46.293Z,42.47
2019-01-21T22:20:18.284Z,41.17
2019-01-21T22:22:46.860Z,39.17
2019-01-21T22:25:15.453Z,38.90
2019-01-21T22:27:44.404Z,40.27
2019-01-21T22:30:19.512Z,42.07
2019-01-21T22:32:48.428Z,36.70
2019-01-21T22:35:17.028Z,36.77
2019-01-21T22:37:45.997Z,35.97
2019-01-21T22:40:18.003Z,38.03
2019-01-21T22:42:46.621Z,35.10
2019-01-21T22:45:15.265Z,36.73
2019-01-21T22:47:43.937Z,37.53
2019-01-21T22:50:12.559Z,37.57
2019-01-21T22:52:41.985Z,37.47
2019-01-21T22:55:09.828Z,36.70
2019-01-21T22:57:38.451Z,36.50
2019-01-21T23:00:16.149Z,31.67
2019-01-21T23:02:45.117Z,34.27
2019-01-21T23:05:13.736Z,36.60
2019-01-21T23:07:42.318Z,36.27
2019-01-21T23:10:10.914Z,33.17
2019-01-21T23:12:39.543Z,34.03
2019-01-21T23:15:08.168Z,32.63
2019-01-21T23:17:36.774Z,33.90
2019-01-21T23:20:05.702Z,36.37
2019-01-21T23:22:34.593Z,34.63
2019-01-21T23:25:03.592Z,31.87
2019-01-21T23:27:32.182Z,31.40
2019-01-21T23:30:00.799Z,30.60
2019-01-21T23:32:29.377Z,32.60
2019-01-21T23:34:58.311Z,31.93
2019-01-21T23:37:26.909Z,31.03
2019-01-21T23:39:55.806Z,31.33
2019-01-21T23:42:24.416Z,27.00
2019-01-21T23:44:53.027Z,28.60
2019-01-21T23:47:21.938Z,33.13
2019-01-21T23:49:50.961Z,33.57
2019-01-21T23:52:19.618Z,35.10
2019-01-21T23:54:48.272Z,30.27
2019-01-21T23:57:17.198Z,31.47
2019-01-21T23:59:45.802Z,32.03
